Time;durP1;ratioP1;P1;durP2;ratioP2;P2;SDS_P1;SDS_P2;PMS_P1;PMS_P2;Temp;Humidity;BMP_temperature;BMP_pressure;BME280_temperature;BME280_humidity;BME280_pressure;Samples;Min_cycle;Max_cycle;Signal;HPM_P1;HPM_P2
2021/12/19 00:10:19;;;;;;;4.90;3.60;;;;;;;;;;5026907;28;20183;-79
2021/12/19 00:12:46;;;;;;;4.40;3.47;;;;;;;;;;5029197;28;20180;-79
2021/12/19 00:15:12;;;;;;;5.43;3.23;;;;;;;;;;5028892;28;20179;-79
2021/12/19 00:17:38;;;;;;;4.10;3.30;;;;;;;;;;5028978;28;20281;-79
2021/12/19 00:20:04;;;;;;;4.37;3.30;;;;;;;;;;5029499;28;20207;-79
2021/12/19 00:22:32;;;;;;;4.97;3.40;;;;;;;;;;5032874;28;20212;-79
2021/12/19 00:24:58;;;;;;;5.43;3.50;;;;;;;;;;5033028;28;20196;-79
2021/12/19 00:27:24;;;;;;;4.57;3.43;;;;;;;;;;5032856;28;20301;-79
2021/12/19 00:29:50;;;;;;;4.63;3.13;;;;;;;;;;5032585;28;20233;-79
2021/12/19 00:32:16;;;;;;;4.00;3.40;;;;;;;;;;5032980;28;20204;-79
2021/12/19 00:34:42;;;;;;;3.77;3.00;;;;;;;;;;5032424;28;20213;-79
2021/12/19 00:37:08;;;;;;;4.63;3.30;;;;;;;;;;5032787;28;20605;-79
2021/12/19 00:39:34;;;;;;;5.13;3.27;;;;;;;;;;5032784;28;20184;-79
2021/12/19 00:42:04;;;;;;;4.90;3.53;;;;;;;;;;5032487;28;20187;-79
2021/12/19 00:44:32;;;;;;;5.13;3.07;;;;;;;;;;5032617;28;20204;-79
2021/12/19 00:47:05;;;;;;;3.97;3.00;;;;;;;;;;5032792;28;20272;-79
2021/12/19 00:49:31;;;;;;;4.43;3.27;;;;;;;;;;5032784;28;20580;-79
2021/12/19 00:51:58;;;;;;;4.00;3.00;;;;;;;;;;5032345;28;20179;-79
2021/12/19 00:54:24;;;;;;;3.40;2.90;;;;;;;;;;5032537;28;20208;-79
2021/12/19 00:56:50;;;;;;;5.27;3.37;;;;;;;;;;5032550;28;20193;-79
2021/12/19 00:59:17;;;;;;;5.60;3.57;;;;;;;;;;5032689;28;20230;-79
2021/12/19 01:01:43;;;;;;;4.43;3.10;;;;;;;;;;5031806;28;20597;-79
2021/12/19 01:04:11;;;;;;;4.63;3.00;;;;;;;;;;5032212;28;20235;-79
2021/12/19 01:06:41;;;;;;;4.80;3.33;;;;;;;;;;5032678;28;20218;-79
2021/12/19 01:09:07;;;;;;;5.00;3.53;;;;;;;;;;5032282;28;20176;-79
2021/12/19 01:11:33;;;;;;;3.87;3.00;;;;;;;;;;5031715;28;20592;-79
2021/12/19 01:14:00;;;;;;;4.70;3.60;;;;;;;;;;5032286;28;20250;-79
2021/12/19 01:16:26;;;;;;;6.13;3.40;;;;;;;;;;5032272;28;20177;-79
2021/12/19 01:18:53;;;;;;;5.33;2.90;;;;;;;;;;5032219;28;20226;-79
2021/12/19 01:21:19;;;;;;;3.27;2.90;;;;;;;;;;5032152;28;20196;-79
2021/12/19 01:23:45;;;;;;;5.33;2.97;;;;;;;;;;5031519;28;20205;-79
2021/12/19 01:26:12;;;;;;;3.90;3.00;;;;;;;;;;5031843;28;20201;-79
2021/12/19 01:28:38;;;;;;;4.40;3.03;;;;;;;;;;5032236;28;20188;-79
2021/12/19 01:31:04;;;;;;;5.07;2.90;;;;;;;;;;5031619;28;20581;-79
2021/12/19 01:33:30;;;;;;;4.67;2.80;;;;;;;;;;5031674;28;20228;-79
2021/12/19 01:35:57;;;;;;;4.07;2.80;;;;;;;;;;5031389;28;20665;-79
2021/12/19 01:38:23;;;;;;;4.90;3.10;;;;;;;;;;5031585;28;20182;-79
2021/12/19 01:40:49;;;;;;;4.40;3.07;;;;;;;;;;5031221;28;20634;-79
2021/12/19 01:43:20;;;;;;;4.90;3.03;;;;;;;;;;5031607;28;20204;-78
2021/12/19 01:45:46;;;;;;;3.83;2.80;;;;;;;;;;5031448;28;20209;-79
2021/12/19 01:48:13;;;;;;;4.70;3.23;;;;;;;;;;5031389;28;20182;-79
2021/12/19 01:50:39;;;;;;;5.40;3.03;;;;;;;;;;5031169;28;20552;-79
2021/12/19 01:53:06;;;;;;;5.80;3.20;;;;;;;;;;5030907;28;20259;-79
2021/12/19 01:55:33;;;;;;;4.67;3.20;;;;;;;;;;5031262;28;20186;-79
2021/12/19 01:57:59;;;;;;;3.17;2.47;;;;;;;;;;5030972;28;20217;-79
2021/12/19 02:00:25;;;;;;;6.97;3.47;;;;;;;;;;5031255;28;20182;-78
2021/12/19 02:02:52;;;;;;;4.73;3.30;;;;;;;;;;5031154;28;20180;-78
2021/12/19 02:05:18;;;;;;;5.17;3.30;;;;;;;;;;5031216;28;20233;-78
2021/12/19 02:07:46;;;;;;;5.67;3.17;;;;;;;;;;5031060;28;20274;-78
2021/12/19 02:10:13;;;;;;;5.20;2.93;;;;;;;;;;5031060;28;20179;-78
2021/12/19 02:12:39;;;;;;;5.47;2.93;;;;;;;;;;5031177;28;20179;-79
2021/12/19 02:15:06;;;;;;;3.90;2.87;;;;;;;;;;5031083;28;20643;-79
2021/12/19 02:17:32;;;;;;;4.70;3.10;;;;;;;;;;5030861;28;20179;-78
2021/12/19 02:19:58;;;;;;;5.73;3.30;;;;;;;;;;5030972;28;20230;-78
2021/12/19 02:22:24;;;;;;;4.30;3.50;;;;;;;;;;5030441;28;20181;-79
2021/12/19 02:24:50;;;;;;;5.80;3.43;;;;;;;;;;5030860;28;20207;-79
2021/12/19 02:27:16;;;;;;;5.80;3.60;;;;;;;;;;5030433;28;20211;-78
2021/12/19 02:29:43;;;;;;;4.97;3.53;;;;;;;;;;5030749;28;20179;-78
2021/12/19 02:32:09;;;;;;;4.53;3.07;;;;;;;;;;5030506;28;20270;-79
2021/12/19 02:34:41;;;;;;;5.73;3.37;;;;;;;;;;5030206;28;20223;-79
2021/12/19 02:37:32;;;;;;;5.37;3.27;;;;;;;;;;5030651;28;20671;-79
2021/12/19 02:48:13;;;;;;;4.43;3.27;;;;;;;;;;5028277;28;20194;-79
2021/12/19 02:50:47;;;;;;;4.20;3.20;;;;;;;;;;5030164;28;20314;-79
2021/12/19 02:53:17;;;;;;;5.83;3.13;;;;;;;;;;5029905;28;20775;-79
2021/12/19 02:55:43;;;;;;;6.97;3.70;;;;;;;;;;5030320;28;20187;-78
2021/12/19 02:58:10;;;;;;;6.10;3.70;;;;;;;;;;5030422;28;20610;-79
2021/12/19 03:00:36;;;;;;;4.80;3.70;;;;;;;;;;5030026;28;20537;-79
2021/12/19 03:03:02;;;;;;;5.10;3.80;;;;;;;;;;5030241;28;20195;-79
2021/12/19 03:05:31;;;;;;;5.07;3.67;;;;;;;;;;5029710;28;20190;-79
2021/12/19 03:07:58;;;;;;;6.80;4.03;;;;;;;;;;5029693;28;20661;-79
2021/12/19 03:18:27;;;;;;;6.47;3.77;;;;;;;;;;5027541;28;20275;-80
2021/12/19 03:20:53;;;;;;;4.67;3.37;;;;;;;;;;5028519;28;20179;-78
2021/12/19 03:23:19;;;;;;;6.27;3.97;;;;;;;;;;5029225;28;20195;-78
2021/12/19 03:25:45;;;;;;;5.73;3.53;;;;;;;;;;5028745;28;20216;-78
2021/12/19 03:28:12;;;;;;;5.53;3.57;;;;;;;;;;5029078;28;20187;-78
2021/12/19 03:30:39;;;;;;;4.73;3.43;;;;;;;;;;5028796;28;20179;-78
2021/12/19 03:33:06;;;;;;;5.53;3.70;;;;;;;;;;5028831;28;20242;-78
2021/12/19 03:35:32;;;;;;;5.10;3.70;;;;;;;;;;5028511;28;20206;-78
2021/12/19 03:38:00;;;;;;;7.70;3.57;;;;;;;;;;5029061;28;20186;-78
2021/12/19 03:40:36;;;;;;;5.50;3.90;;;;;;;;;;5028647;28;20184;-77
2021/12/19 03:43:22;;;;;;;4.27;3.40;;;;;;;;;;5028874;28;20213;-78
2021/12/19 03:45:48;;;;;;;4.30;3.50;;;;;;;;;;5028287;28;20210;-78
2021/12/19 03:48:16;;;;;;;6.53;3.50;;;;;;;;;;5028940;28;20182;-78
2021/12/19 03:50:44;;;;;;;6.07;3.90;;;;;;;;;;5028650;28;20206;-78
2021/12/19 03:53:10;;;;;;;5.00;3.70;;;;;;;;;;5028580;28;20234;-77
2021/12/19 03:55:36;;;;;;;4.57;3.63;;;;;;;;;;5027662;28;20293;-78
2021/12/19 03:58:03;;;;;;;5.23;3.73;;;;;;;;;;5028661;28;20222;-78
2021/12/19 04:00:31;;;;;;;5.20;3.87;;;;;;;;;;5028135;28;20185;-78
2021/12/19 04:02:59;;;;;;;4.70;3.67;;;;;;;;;;5028321;28;20202;-78
2021/12/19 04:05:25;;;;;;;6.93;4.07;;;;;;;;;;5028316;28;20179;-78
2021/12/19 04:07:51;;;;;;;5.67;3.53;;;;;;;;;;5028683;28;20178;-78
2021/12/19 04:10:17;;;;;;;5.23;3.63;;;;;;;;;;5028439;28;20189;-77
2021/12/19 04:12:44;;;;;;;4.77;3.77;;;;;;;;;;5027794;28;20267;-78
2021/12/19 04:15:11;;;;;;;4.93;3.90;;;;;;;;;;5028296;28;20182;-78
2021/12/19 04:17:37;;;;;;;4.93;3.73;;;;;;;;;;5028279;28;20178;-78
2021/12/19 04:20:04;;;;;;;6.57;4.03;;;;;;;;;;5028416;28;20186;-78
2021/12/19 04:22:30;;;;;;;5.10;4.07;;;;;;;;;;5027973;28;20186;-78
2021/12/19 04:24:56;;;;;;;5.13;3.50;;;;;;;;;;5028075;28;20203;-78
2021/12/19 04:27:22;;;;;;;5.40;3.90;;;;;;;;;;5028328;28;20202;-78
2021/12/19 04:29:50;;;;;;;5.80;3.77;;;;;;;;;;5028083;28;20179;-78
2021/12/19 04:32:18;;;;;;;4.70;3.60;;;;;;;;;;5027992;28;20233;-78
2021/12/19 04:34:44;;;;;;;4.77;3.77;;;;;;;;;;5027925;28;20217;-78
2021/12/19 04:37:38;;;;;;;4.27;3.60;;;;;;;;;;5028174;28;20215;-78
2021/12/19 04:40:08;;;;;;;4.77;3.60;;;;;;;;;;5025166;28;20191;-78
2021/12/19 04:56:42;;;;;;;4.87;3.50;;;;;;;;;;5013033;28;20190;-77
2021/12/19 05:02:01;;;;;;;6.43;3.80;;;;;;;;;;5026445;28;20180;-77
2021/12/19 05:05:23;;;;;;;4.90;3.80;;;;;;;;;;5012475;28;20199;-78
2021/12/19 05:15:26;;;;;;;5.97;4.03;;;;;;;;;;5029467;28;20237;-77
2021/12/19 05:18:01;;;;;;;4.47;3.43;;;;;;;;;;5031206;28;20603;-78
2021/12/19 05:20:29;;;;;;;6.13;3.77;;;;;;;;;;5031004;28;20170;-78
2021/12/19 05:23:02;;;;;;;6.87;3.90;;;;;;;;;;5031097;28;20641;-78
2021/12/19 05:25:28;;;;;;;5.50;3.80;;;;;;;;;;5031439;28;20167;-77
2021/12/19 05:27:56;;;;;;;5.30;3.97;;;;;;;;;;5031071;28;20202;-78
2021/12/19 05:30:23;;;;;;;6.10;3.97;;;;;;;;;;5030870;28;20175;-78
2021/12/19 05:32:49;;;;;;;4.87;3.77;;;;;;;;;;5030873;28;20625;-78
2021/12/19 05:35:22;;;;;;;5.43;3.80;;;;;;;;;;5030741;28;20183;-77
2021/12/19 05:46:02;;;;;;;4.67;3.70;;;;;;;;;;5027558;28;20217;-77
2021/12/19 05:48:28;;;;;;;6.27;4.20;;;;;;;;;;5029671;28;20198;-77
2021/12/19 05:50:54;;;;;;;6.73;4.00;;;;;;;;;;5029338;28;20175;-77
2021/12/19 05:53:20;;;;;;;7.17;3.70;;;;;;;;;;5029499;28;20270;-77
2021/12/19 05:55:46;;;;;;;6.40;4.17;;;;;;;;;;5029754;28;20650;-77
2021/12/19 05:58:12;;;;;;;6.90;4.17;;;;;;;;;;5029602;28;20182;-77
2021/12/19 06:00:38;;;;;;;6.17;4.20;;;;;;;;;;5029274;28;20202;-77
2021/12/19 06:03:05;;;;;;;7.23;4.30;;;;;;;;;;5029665;28;20354;-77
2021/12/19 06:05:31;;;;;;;5.80;3.93;;;;;;;;;;5029282;28;20183;-78
2021/12/19 06:07:57;;;;;;;5.77;3.90;;;;;;;;;;5029324;28;20179;-78
2021/12/19 06:10:28;;;;;;;7.13;4.13;;;;;;;;;;5029800;28;20269;-81
2021/12/19 06:12:53;;;;;;;5.97;4.53;;;;;;;;;;5029741;28;20238;-81
2021/12/19 06:15:20;;;;;;;6.10;4.20;;;;;;;;;;5029971;28;20203;-80
2021/12/19 06:17:46;;;;;;;6.90;4.33;;;;;;;;;;5028821;28;20187;-80
2021/12/19 06:20:12;;;;;;;5.90;4.50;;;;;;;;;;5029636;28;20297;-80
2021/12/19 06:22:39;;;;;;;6.43;4.50;;;;;;;;;;5029632;28;20179;-81
2021/12/19 06:25:05;;;;;;;6.13;4.20;;;;;;;;;;5029970;28;20281;-81
2021/12/19 06:27:31;;;;;;;7.70;3.90;;;;;;;;;;5029726;28;20214;-80
2021/12/19 06:29:57;;;;;;;6.97;4.07;;;;;;;;;;5029571;28;20242;-80
2021/12/19 06:32:23;;;;;;;5.43;3.70;;;;;;;;;;5029106;28;20605;-80
2021/12/19 06:34:49;;;;;;;5.50;3.93;;;;;;;;;;5029141;28;20249;-80
2021/12/19 06:37:15;;;;;;;5.27;3.60;;;;;;;;;;5029568;28;20190;-79
2021/12/19 06:39:41;;;;;;;5.10;3.90;;;;;;;;;;5029137;28;20188;-79
2021/12/19 06:42:09;;;;;;;5.53;4.07;;;;;;;;;;5029035;28;20617;-79
2021/12/19 06:44:36;;;;;;;5.00;3.60;;;;;;;;;;5029596;28;20317;-79
2021/12/19 06:47:03;;;;;;;6.17;3.80;;;;;;;;;;5029043;28;20211;-79
2021/12/19 06:49:29;;;;;;;6.10;4.10;;;;;;;;;;5029262;28;20194;-80
2021/12/19 06:51:55;;;;;;;5.77;3.77;;;;;;;;;;5029056;28;20178;-80
2021/12/19 06:54:21;;;;;;;5.50;3.90;;;;;;;;;;5029063;28;20202;-79
2021/12/19 06:56:47;;;;;;;6.13;3.73;;;;;;;;;;5029042;28;20240;-79
2021/12/19 06:59:13;;;;;;;5.30;4.03;;;;;;;;;;5029139;28;20279;-79
2021/12/19 07:01:39;;;;;;;7.17;4.73;;;;;;;;;;5028429;28;20186;-80
2021/12/19 07:04:05;;;;;;;6.63;4.17;;;;;;;;;;5028883;28;20210;-79
2021/12/19 07:06:31;;;;;;;5.33;3.73;;;;;;;;;;5028819;28;20211;-78
2021/12/19 07:08:57;;;;;;;5.53;4.30;;;;;;;;;;5028606;28;20186;-79
2021/12/19 07:11:23;;;;;;;4.97;3.80;;;;;;;;;;5028242;28;20187;-79
2021/12/19 07:13:50;;;;;;;5.43;3.60;;;;;;;;;;5028558;28;20248;-81
2021/12/19 07:16:17;;;;;;;6.20;3.63;;;;;;;;;;5028722;28;20187;-77
2021/12/19 07:18:44;;;;;;;6.30;4.00;;;;;;;;;;5027914;28;20688;-76
2021/12/19 07:21:10;;;;;;;5.13;3.83;;;;;;;;;;5028006;28;20187;-77
2021/12/19 07:23:36;;;;;;;14.77;9.97;;;;;;;;;;5028077;28;20208;-77
2021/12/19 07:26:03;;;;;;;6.30;4.03;;;;;;;;;;5027838;28;20216;-76
2021/12/19 07:28:29;;;;;;;6.33;3.97;;;;;;;;;;5027918;28;20184;-77
2021/12/19 07:30:56;;;;;;;6.13;4.20;;;;;;;;;;5027293;28;20243;-77
2021/12/19 07:33:22;;;;;;;7.80;5.47;;;;;;;;;;5027857;28;20243;-80
2021/12/19 07:35:49;;;;;;;7.77;5.30;;;;;;;;;;5028030;28;20238;-77
2021/12/19 07:38:24;;;;;;;6.87;5.20;;;;;;;;;;5028153;28;20183;-77
2021/12/19 07:40:50;;;;;;;9.20;4.37;;;;;;;;;;5027877;28;20183;-83
2021/12/19 07:43:17;;;;;;;6.23;4.50;;;;;;;;;;5027883;28;20205;-78
2021/12/19 07:45:43;;;;;;;7.53;4.50;;;;;;;;;;5027839;28;20179;-79
2021/12/19 07:48:09;;;;;;;6.57;4.33;;;;;;;;;;5027731;28;20265;-79
2021/12/19 07:50:35;;;;;;;8.20;4.90;;;;;;;;;;5027510;28;20270;-78
2021/12/19 07:53:03;;;;;;;6.63;4.60;;;;;;;;;;5027577;28;20208;-78
2021/12/19 07:55:29;;;;;;;8.43;4.53;;;;;;;;;;5027682;28;20180;-79
2021/12/19 07:57:55;;;;;;;8.57;4.80;;;;;;;;;;5027567;28;20190;-78
2021/12/19 08:00:21;;;;;;;6.50;4.17;;;;;;;;;;5027814;28;20183;-80
2021/12/19 08:02:47;;;;;;;7.67;4.57;;;;;;;;;;5028127;28;20254;-80
2021/12/19 08:05:14;;;;;;;7.50;5.03;;;;;;;;;;5027590;28;20270;-79
2021/12/19 08:07:41;;;;;;;7.47;5.07;;;;;;;;;;5027813;28;20257;-80
2021/12/19 08:12:34;;;;;;;8.93;4.80;;;;;;;;;;5027548;28;20744;-79
2021/12/19 08:15:00;;;;;;;7.23;4.90;;;;;;;;;;5027885;28;20179;-80
2021/12/19 08:17:26;;;;;;;6.60;4.87;;;;;;;;;;5028082;28;20638;-80
2021/12/19 08:19:53;;;;;;;7.57;5.07;;;;;;;;;;5027914;28;20183;-81
2021/12/19 08:22:20;;;;;;;7.10;4.60;;;;;;;;;;5027846;28;20183;-80
2021/12/19 08:24:47;;;;;;;8.43;5.07;;;;;;;;;;5027998;28;20685;-81
2021/12/19 08:27:13;;;;;;;8.17;5.30;;;;;;;;;;5027804;28;20235;-80
2021/12/19 08:29:40;;;;;;;8.63;5.43;;;;;;;;;;5028201;28;20179;-80
2021/12/19 08:32:06;;;;;;;10.73;6.53;;;;;;;;;;5027732;28;20175;-81
2021/12/19 08:34:32;;;;;;;10.03;5.40;;;;;;;;;;5027588;28;20227;-80
2021/12/19 08:36:59;;;;;;;11.77;5.70;;;;;;;;;;5027838;28;20179;-80
2021/12/19 08:39:25;;;;;;;10.30;5.93;;;;;;;;;;5027779;28;20283;-80
2021/12/19 08:41:51;;;;;;;9.77;5.83;;;;;;;;;;5029087;28;20194;-80
2021/12/19 08:44:17;;;;;;;9.47;6.07;;;;;;;;;;5031397;28;20253;-80
2021/12/19 08:46:45;;;;;;;8.73;5.50;;;;;;;;;;5031714;28;20207;-80
2021/12/19 08:49:11;;;;;;;8.53;5.30;;;;;;;;;;5031190;28;20189;-80
2021/12/19 08:51:39;;;;;;;8.67;5.90;;;;;;;;;;5030778;28;20234;-82
2021/12/19 08:54:06;;;;;;;11.33;6.53;;;;;;;;;;5030863;28;20289;-82
2021/12/19 08:56:32;;;;;;;10.83;6.20;;;;;;;;;;5031186;28;20257;-83
2021/12/19 08:58:59;;;;;;;9.00;5.90;;;;;;;;;;5031006;28;20560;-82
2021/12/19 09:01:26;;;;;;;10.93;6.47;;;;;;;;;;5030593;28;20270;-82
2021/12/19 09:03:52;;;;;;;9.80;6.03;;;;;;;;;;5030705;28;20209;-82
2021/12/19 09:06:18;;;;;;;12.73;7.60;;;;;;;;;;5030525;28;20215;-82
2021/12/19 09:08:44;;;;;;;12.63;7.20;;;;;;;;;;5030474;28;20179;-82
2021/12/19 09:11:10;;;;;;;12.57;7.43;;;;;;;;;;5030498;28;20179;-82
2021/12/19 09:13:36;;;;;;;18.13;10.27;;;;;;;;;;5030605;28;20203;-82
2021/12/19 09:16:02;;;;;;;23.23;12.90;;;;;;;;;;5030534;28;20188;-82
2021/12/19 09:18:28;;;;;;;11.97;7.50;;;;;;;;;;5030503;28;20202;-82
2021/12/19 09:20:55;;;;;;;10.47;6.27;;;;;;;;;;5030172;28;20190;-82
2021/12/19 09:23:21;;;;;;;14.90;8.67;;;;;;;;;;5030522;28;20305;-79
2021/12/19 09:25:47;;;;;;;24.70;13.27;;;;;;;;;;5030368;28;20191;-82
2021/12/19 09:28:14;;;;;;;25.73;14.50;;;;;;;;;;5030521;28;20229;-83
2021/12/19 09:30:40;;;;;;;27.30;15.00;;;;;;;;;;5030344;28;20452;-83
2021/12/19 09:33:06;;;;;;;16.63;10.00;;;;;;;;;;5029939;28;20309;-78
2021/12/19 09:35:34;;;;;;;12.53;7.10;;;;;;;;;;5030117;28;20241;-79
2021/12/19 09:38:00;;;;;;;28.53;14.93;;;;;;;;;;5029928;28;20179;-78
2021/12/19 09:40:33;;;;;;;26.03;14.50;;;;;;;;;;5029902;28;20178;-79
2021/12/19 09:43:02;;;;;;;15.33;9.00;;;;;;;;;;5029870;28;20191;-79
2021/12/19 09:45:28;;;;;;;16.07;8.83;;;;;;;;;;5029868;28;20171;-80
2021/12/19 09:47:54;;;;;;;17.20;10.50;;;;;;;;;;5029500;28;20209;-79
2021/12/19 09:50:20;;;;;;;19.67;11.97;;;;;;;;;;5029417;28;20217;-79
2021/12/19 09:52:47;;;;;;;12.73;7.80;;;;;;;;;;5028582;28;20186;-79
2021/12/19 09:55:17;;;;;;;13.13;7.77;;;;;;;;;;5035070;28;20185;-79
2021/12/19 09:57:43;;;;;;;12.67;6.90;;;;;;;;;;5033096;28;20187;-78
2021/12/19 10:00:09;;;;;;;13.37;7.50;;;;;;;;;;5031534;28;20179;-78
2021/12/19 10:02:36;;;;;;;12.87;7.77;;;;;;;;;;5032157;28;20619;-79
2021/12/19 10:05:14;;;;;;;16.77;9.53;;;;;;;;;;5049038;28;20181;-77
2021/12/19 10:07:48;;;;;;;19.97;10.13;;;;;;;;;;5043492;28;20233;-78
2021/12/19 10:10:24;;;;;;;11.37;6.87;;;;;;;;;;5029242;28;20182;-81
2021/12/19 10:12:52;;;;;;;15.63;9.57;;;;;;;;;;5027840;28;20552;-78
2021/12/19 10:15:18;;;;;;;12.67;8.13;;;;;;;;;;5029256;28;20182;-77
2021/12/19 10:17:45;;;;;;;15.87;9.37;;;;;;;;;;5029377;28;20183;-76
2021/12/19 10:20:12;;;;;;;13.03;7.93;;;;;;;;;;5029204;28;20187;-77
2021/12/19 10:22:38;;;;;;;12.90;6.93;;;;;;;;;;5030974;28;20252;-77
2021/12/19 10:25:18;;;;;;;10.23;6.50;;;;;;;;;;5034229;28;20270;-77
2021/12/19 10:27:50;;;;;;;12.07;6.60;;;;;;;;;;5029603;28;20201;-75
2021/12/19 10:30:18;;;;;;;11.40;6.03;;;;;;;;;;5031526;28;20235;-77
2021/12/19 10:32:57;;;;;;;11.90;6.40;;;;;;;;;;5032429;28;20170;-76
2021/12/19 10:35:34;;;;;;;10.80;6.90;;;;;;;;;;5032194;28;20182;-76
2021/12/19 10:38:00;;;;;;;11.03;6.40;;;;;;;;;;5032488;28;20571;-77
2021/12/19 10:40:27;;;;;;;11.80;6.60;;;;;;;;;;5031973;28;20235;-78
2021/12/19 10:43:16;;;;;;;9.80;5.93;;;;;;;;;;5032175;28;20209;-78
2021/12/19 10:45:48;;;;;;;9.73;6.40;;;;;;;;;;5032365;28;20176;-76
2021/12/19 10:48:14;;;;;;;10.73;6.20;;;;;;;;;;5032873;28;20257;-78
2021/12/19 10:50:41;;;;;;;11.30;6.33;;;;;;;;;;5032316;28;20170;-78
2021/12/19 10:53:07;;;;;;;10.00;6.43;;;;;;;;;;5032570;28;20206;-76
2021/12/19 10:55:34;;;;;;;10.13;5.77;;;;;;;;;;5032000;28;20190;-79
2021/12/19 10:57:59;;;;;;;9.03;4.97;;;;;;;;;;5032109;28;20192;-78
2021/12/19 11:00:27;;;;;;;9.77;5.77;;;;;;;;;;5031839;28;20182;-79
2021/12/19 11:02:53;;;;;;;10.50;5.47;;;;;;;;;;5031824;28;20240;-78
2021/12/19 11:05:42;;;;;;;8.60;4.87;;;;;;;;;;5031209;28;20178;-78
2021/12/19 11:08:09;;;;;;;10.23;5.80;;;;;;;;;;5032319;28;20213;-77
2021/12/19 11:10:36;;;;;;;7.57;5.20;;;;;;;;;;5031383;28;20174;-78
2021/12/19 11:13:09;;;;;;;9.43;5.97;;;;;;;;;;5031553;28;20293;-78
2021/12/19 11:15:35;;;;;;;8.20;5.17;;;;;;;;;;5031382;28;20654;-78
2021/12/19 11:18:01;;;;;;;8.37;5.37;;;;;;;;;;5031369;28;20213;-77
2021/12/19 11:20:27;;;;;;;8.63;5.37;;;;;;;;;;5031472;28;20182;-77
2021/12/19 11:22:54;;;;;;;10.53;5.43;;;;;;;;;;5031422;28;20210;-77
2021/12/19 11:25:20;;;;;;;8.50;5.33;;;;;;;;;;5031310;28;20606;-77
2021/12/19 11:27:47;;;;;;;9.07;5.67;;;;;;;;;;5031291;28;20224;-77
2021/12/19 11:30:14;;;;;;;9.93;5.57;;;;;;;;;;5031273;28;20174;-77
2021/12/19 11:32:43;;;;;;;7.90;5.23;;;;;;;;;;5030603;28;20280;-77
2021/12/19 11:35:14;;;;;;;10.57;5.60;;;;;;;;;;5089919;22;20275;-81
2021/12/19 11:37:43;;;;;;;10.00;5.70;;;;;;;;;;5051461;28;20272;-81
2021/12/19 11:40:10;;;;;;;8.13;4.77;;;;;;;;;;5034991;28;20250;-81
2021/12/19 11:42:37;;;;;;;8.80;4.80;;;;;;;;;;5052427;28;20173;-81
2021/12/19 11:45:24;;;;;;;8.33;5.10;;;;;;;;;;5051077;28;20201;-81
2021/12/19 11:47:55;;;;;;;8.90;4.93;;;;;;;;;;5051202;28;20205;-82
2021/12/19 11:50:23;;;;;;;19.23;9.67;;;;;;;;;;5051582;28;20166;-81
2021/12/19 11:52:53;;;;;;;14.20;7.63;;;;;;;;;;5052007;28;20174;-79
2021/12/19 11:55:22;;;;;;;11.77;6.53;;;;;;;;;;5051821;28;20194;-79
2021/12/19 11:58:06;;;;;;;8.27;5.27;;;;;;;;;;5051613;28;20177;-83
2021/12/19 12:00:34;;;;;;;7.77;4.70;;;;;;;;;;5051791;28;20227;-80
2021/12/19 12:03:12;;;;;;;6.17;3.90;;;;;;;;;;5035678;28;20197;-80
2021/12/19 12:05:49;;;;;;;7.47;4.50;;;;;;;;;;5052958;28;20173;-78
2021/12/19 12:08:16;;;;;;;6.20;4.10;;;;;;;;;;5052766;28;20185;-81
2021/12/19 12:11:02;;;;;;;7.23;4.30;;;;;;;;;;5051326;28;20169;-84
2021/12/19 12:13:34;;;;;;;7.73;4.47;;;;;;;;;;5050645;28;20197;-78
2021/12/19 12:16:25;;;;;;;6.47;4.57;;;;;;;;;;5035478;28;20524;-80
2021/12/19 12:18:58;;;;;;;7.90;4.40;;;;;;;;;;5046979;28;20180;-79
2021/12/19 12:21:39;;;;;;;7.53;4.43;;;;;;;;;;5055119;28;20262;-81
2021/12/19 12:24:16;;;;;;;6.73;4.13;;;;;;;;;;5055273;28;20198;-80
2021/12/19 12:26:52;;;;;;;5.77;4.00;;;;;;;;;;5055029;28;20208;-83
2021/12/19 12:29:18;;;;;;;6.97;4.50;;;;;;;;;;5055302;28;20555;-82
2021/12/19 12:31:46;;;;;;;8.37;5.10;;;;;;;;;;5038141;28;20551;-78
2021/12/19 12:34:13;;;;;;;5.90;4.13;;;;;;;;;;5039147;28;20223;-80
2021/12/19 12:36:39;;;;;;;7.60;4.27;;;;;;;;;;5056351;28;20219;-81
2021/12/19 12:39:10;;;;;;;6.93;4.70;;;;;;;;;;5054965;28;20221;-81
2021/12/19 12:44:12;;;;;;;5.83;3.90;;;;;;;;;;5055277;28;20211;-81
2021/12/19 12:46:39;;;;;;;8.67;4.97;;;;;;;;;;5055026;28;20206;-83
2021/12/19 12:49:05;;;;;;;7.87;4.20;;;;;;;;;;5054994;28;20177;-83
2021/12/19 12:51:39;;;;;;;7.80;4.70;;;;;;;;;;5054628;28;20179;-82
2021/12/19 12:54:33;;;;;;;6.50;4.30;;;;;;;;;;5054914;28;20201;-79
2021/12/19 12:57:00;;;;;;;6.90;4.30;;;;;;;;;;5049054;28;20204;-80
2021/12/19 12:59:31;;;;;;;7.63;4.70;;;;;;;;;;5054787;28;20179;-80
2021/12/19 13:04:33;;;;;;;6.30;4.10;;;;;;;;;;5056478;28;20201;-82
2021/12/19 13:07:07;;;;;;;6.63;4.13;;;;;;;;;;5054797;28;20213;-83
2021/12/19 13:09:37;;;;;;;5.90;3.87;;;;;;;;;;5054924;28;20188;-85
2021/12/19 13:12:03;;;;;;;7.10;3.73;;;;;;;;;;5038014;28;20178;-83
2021/12/19 13:14:30;;;;;;;6.23;3.67;;;;;;;;;;5054547;28;20248;-83
2021/12/19 13:16:58;;;;;;;5.23;3.17;;;;;;;;;;5037950;28;20277;-83
2021/12/19 13:19:36;;;;;;;5.80;3.60;;;;;;;;;;5054574;28;20633;-79
2021/12/19 13:22:03;;;;;;;5.63;3.20;;;;;;;;;;5054619;28;20188;-82
2021/12/19 13:24:31;;;;;;;4.73;3.13;;;;;;;;;;5037905;28;20298;-82
2021/12/19 13:27:12;;;;;;;5.90;3.47;;;;;;;;;;5054157;28;20194;-81
2021/12/19 13:29:39;;;;;;;5.00;3.10;;;;;;;;;;5054876;28;20183;-83
2021/12/19 13:32:17;;;;;;;5.00;3.20;;;;;;;;;;5037866;28;20181;-82
2021/12/19 13:34:43;;;;;;;6.03;3.50;;;;;;;;;;5053940;28;20251;-80
2021/12/19 13:37:09;;;;;;;4.40;3.27;;;;;;;;;;5037438;28;20187;-80
2021/12/19 13:39:35;;;;;;;4.60;2.97;;;;;;;;;;5037439;28;20194;-80
2021/12/19 13:42:11;;;;;;;4.83;3.20;;;;;;;;;;5055149;28;20175;-81
2021/12/19 13:44:38;;;;;;;4.70;3.13;;;;;;;;;;5054393;28;20199;-80
2021/12/19 13:47:30;;;;;;;5.27;3.30;;;;;;;;;;5055309;28;20202;-80
2021/12/19 13:49:56;;;;;;;4.60;3.17;;;;;;;;;;5051567;28;20184;-81
2021/12/19 13:52:22;;;;;;;3.90;2.90;;;;;;;;;;5054417;28;20175;-81
2021/12/19 13:54:49;;;;;;;5.17;3.20;;;;;;;;;;5038145;28;20204;-81
2021/12/19 13:57:19;;;;;;;4.27;2.80;;;;;;;;;;5053950;28;20205;-80
2021/12/19 13:59:45;;;;;;;4.70;2.80;;;;;;;;;;5053610;28;20182;-82
2021/12/19 14:02:12;;;;;;;6.07;3.33;;;;;;;;;;5053717;28;20184;-82
2021/12/19 14:04:38;;;;;;;5.57;3.27;;;;;;;;;;5053439;28;20190;-82
2021/12/19 14:07:10;;;;;;;4.50;3.17;;;;;;;;;;5053082;28;20248;-84
2021/12/19 14:09:40;;;;;;;7.07;4.17;;;;;;;;;;5037690;28;20179;-81
2021/12/19 14:12:11;;;;;;;4.83;3.60;;;;;;;;;;5053280;28;20648;-81
2021/12/19 14:14:37;;;;;;;4.33;2.80;;;;;;;;;;5053543;28;20194;-81
2021/12/19 14:17:05;;;;;;;3.53;2.47;;;;;;;;;;5053543;28;20231;-81
2021/12/19 14:19:51;;;;;;;3.87;2.53;;;;;;;;;;5053075;28;20186;-81
2021/12/19 14:22:18;;;;;;;3.10;2.50;;;;;;;;;;5053936;28;20179;-81
2021/12/19 14:24:47;;;;;;;4.63;3.30;;;;;;;;;;5053996;28;20203;-81
2021/12/19 14:27:19;;;;;;;4.47;2.60;;;;;;;;;;5054219;28;20196;-81
2021/12/19 14:29:51;;;;;;;5.13;3.23;;;;;;;;;;5054007;28;20244;-81
2021/12/19 14:32:22;;;;;;;5.00;3.30;;;;;;;;;;5054079;28;20185;-81
2021/12/19 14:34:50;;;;;;;3.43;2.47;;;;;;;;;;5053606;28;20217;-80
2021/12/19 14:37:21;;;;;;;3.33;2.30;;;;;;;;;;5053259;28;20641;-84
2021/12/19 14:40:02;;;;;;;3.53;2.20;;;;;;;;;;5036060;28;20184;-80
2021/12/19 14:42:29;;;;;;;3.47;2.30;;;;;;;;;;5036585;28;20630;-78
2021/12/19 14:44:56;;;;;;;3.33;2.30;;;;;;;;;;5052850;28;20564;-82
2021/12/19 14:47:35;;;;;;;2.73;2.07;;;;;;;;;;5052774;28;20201;-80
2021/12/19 14:50:13;;;;;;;3.20;1.80;;;;;;;;;;5052867;28;20172;-80
2021/12/19 14:52:40;;;;;;;2.80;2.00;;;;;;;;;;5053153;28;20181;-81
2021/12/19 14:55:10;;;;;;;1.93;1.40;;;;;;;;;;5052654;28;20202;-79
2021/12/19 14:57:36;;;;;;;2.33;1.60;;;;;;;;;;5053418;28;20175;-79
2021/12/19 15:00:04;;;;;;;2.60;1.80;;;;;;;;;;5053536;28;20264;-79
2021/12/19 15:02:30;;;;;;;2.30;1.77;;;;;;;;;;5053103;28;20174;-78
2021/12/19 15:04:56;;;;;;;2.60;1.77;;;;;;;;;;5036682;28;20255;-78
2021/12/19 15:07:25;;;;;;;2.33;1.70;;;;;;;;;;5053417;28;20194;-79
2021/12/19 15:09:51;;;;;;;2.30;1.60;;;;;;;;;;5036969;28;20179;-79
2021/12/19 15:12:17;;;;;;;2.30;1.80;;;;;;;;;;5036168;28;20643;-79
2021/12/19 15:14:43;;;;;;;2.37;1.93;;;;;;;;;;5036046;28;20726;-80
2021/12/19 15:17:09;;;;;;;3.00;1.90;;;;;;;;;;5036383;28;20226;-80
2021/12/19 15:19:35;;;;;;;2.33;1.70;;;;;;;;;;5036228;28;20222;-78
2021/12/19 15:22:01;;;;;;;2.30;1.60;;;;;;;;;;5035700;28;20578;-82
2021/12/19 15:24:27;;;;;;;2.33;1.70;;;;;;;;;;5027207;28;20237;-80
2021/12/19 15:26:53;;;;;;;2.23;1.63;;;;;;;;;;5016030;28;20212;-80
2021/12/19 15:29:20;;;;;;;3.40;1.77;;;;;;;;;;5016011;28;20194;-84
2021/12/19 15:31:46;;;;;;;2.60;1.87;;;;;;;;;;5033088;28;20213;-82
2021/12/19 15:34:12;;;;;;;1.90;1.70;;;;;;;;;;5040400;28;20217;-85
2021/12/19 15:36:39;;;;;;;2.30;1.70;;;;;;;;;;5062408;28;20181;-81
2021/12/19 15:39:08;;;;;;;2.10;1.63;;;;;;;;;;5064320;28;20174;-81
2021/12/19 15:41:34;;;;;;;2.90;1.67;;;;;;;;;;5050588;28;20595;-81
2021/12/19 15:44:00;;;;;;;2.43;1.87;;;;;;;;;;5035411;28;20208;-79
2021/12/19 15:46:26;;;;;;;2.27;1.60;;;;;;;;;;5032765;28;20321;-81
2021/12/19 15:48:53;;;;;;;1.83;1.30;;;;;;;;;;5039502;28;20186;-80
2021/12/19 15:51:19;;;;;;;1.53;1.10;;;;;;;;;;5053523;28;20559;-82
2021/12/19 15:53:46;;;;;;;1.53;1.20;;;;;;;;;;5035361;28;20201;-82